createdAt,value
2018-02-23T00:01:32.845Z,55.40
2018-02-23T00:04:01.839Z,55.40
2018-02-23T00:06:29.411Z,55.40
2018-02-23T00:08:56.970Z,55.00
2018-02-23T00:11:25.648Z,55.00
2018-02-23T00:13:53.182Z,55.20
2018-02-23T00:16:20.719Z,54.80
2018-02-23T00:18:49.098Z,55.30
2018-02-23T00:21:17.371Z,55.20
2018-02-23T00:23:45.710Z,55.20
2018-02-23T00:26:14.001Z,55.10
2018-02-23T00:28:41.569Z,55.60
2018-02-23T00:31:09.187Z,55.70
2018-02-23T00:33:36.722Z,56.00
2018-02-23T00:36:04.317Z,55.80
2018-02-23T00:38:32.477Z,55.70
2018-02-23T00:40:59.996Z,55.90
2018-02-23T00:43:27.524Z,55.40
2018-02-23T00:45:56.430Z,55.90
2018-02-23T00:48:23.960Z,56.30
2018-02-23T00:50:51.528Z,55.80
2018-02-23T00:53:19.588Z,55.60
2018-02-23T00:55:47.154Z,55.60
2018-02-23T00:58:15.623Z,55.80
2018-02-23T01:00:46.004Z,55.50
2018-02-23T01:03:14.409Z,55.60
2018-02-23T01:05:41.991Z,55.50
2018-02-23T01:08:11.091Z,55.80
2018-02-23T01:10:39.591Z,55.80
2018-02-23T01:13:07.112Z,55.30
2018-02-23T01:15:34.640Z,55.40
2018-02-23T01:18:02.968Z,55.50
2018-02-23T01:20:30.527Z,55.50
2018-02-23T01:22:58.068Z,55.40
2018-02-23T01:25:25.646Z,55.30
2018-02-23T01:27:53.230Z,55.60
2018-02-23T01:30:20.808Z,55.80
2018-02-23T01:32:49.144Z,55.80
2018-02-23T01:35:17.432Z,55.80
2018-02-23T01:37:44.974Z,55.50
2018-02-23T01:40:12.542Z,55.80
2018-02-23T01:42:40.990Z,56.00
2018-02-23T01:45:09.106Z,56.10
2018-02-23T01:47:37.452Z,56.00
2018-02-23T01:50:07.383Z,56.50
2018-02-23T01:52:34.972Z,56.50
2018-02-23T01:55:02.700Z,56.30
2018-02-23T01:57:30.262Z,56.30
2018-02-23T01:59:58.584Z,56.60
2018-02-23T02:02:26.926Z,56.40
2018-02-23T02:04:54.477Z,56.40
2018-02-23T02:07:22.276Z,56.50
2018-02-23T02:09:49.824Z,56.60
2018-02-23T02:12:18.643Z,56.40
2018-02-23T02:14:46.987Z,56.40
2018-02-23T02:17:14.552Z,56.40
2018-02-23T02:19:42.103Z,56.50
2018-02-23T02:22:09.712Z,56.90
2018-02-23T02:24:37.268Z,57.50
2018-02-23T02:27:04.812Z,57.10
2018-02-23T02:29:32.424Z,57.10
2018-02-23T02:31:59.960Z,56.80
2018-02-23T02:34:28.339Z,56.90
2018-02-23T02:36:55.919Z,56.80
2018-02-23T02:39:24.121Z,57.00
2018-02-23T02:41:51.719Z,57.10
2018-02-23T02:44:20.115Z,56.80
2018-02-23T02:46:47.794Z,56.80
2018-02-23T02:49:15.368Z,57.00
2018-02-23T02:51:42.915Z,57.20
2018-02-23T02:54:10.462Z,58.30
2018-02-23T02:56:38.148Z,58.20
2018-02-23T02:59:07.059Z,58.40
2018-02-23T03:01:34.604Z,58.40
2018-02-23T03:04:02.172Z,57.50
2018-02-23T03:06:29.721Z,57.90
2018-02-23T03:08:57.236Z,57.70
2018-02-23T03:11:25.549Z,58.40
2018-02-23T03:13:54.646Z,58.40
2018-02-23T03:16:22.169Z,58.10
2018-02-23T03:18:49.778Z,58.20
2018-02-23T03:21:17.322Z,58.20
2018-02-23T03:23:44.887Z,58.60
2018-02-23T03:26:13.127Z,58.80
2018-02-23T03:28:41.458Z,58.20
2018-02-23T03:31:09.177Z,58.10
2018-02-23T03:33:37.579Z,58.60
2018-02-23T03:49:00.169Z,58.60
2018-02-23T03:51:28.155Z,60.00
2018-02-23T03:53:55.708Z,59.90
2018-02-23T03:56:24.050Z,58.90
2018-02-23T03:58:51.604Z,58.80
2018-02-23T04:01:19.122Z,58.90
2018-02-23T04:03:47.534Z,59.30
2018-02-23T04:06:15.070Z,59.30
2018-02-23T04:08:43.393Z,58.60
2018-02-23T04:11:10.959Z,58.60
2018-02-23T04:13:38.491Z,58.40
2018-02-23T04:16:06.052Z,58.00
2018-02-23T04:18:34.478Z,57.40
2018-02-23T04:21:02.009Z,57.50
2018-02-23T04:23:30.388Z,57.30
2018-02-23T04:25:58.390Z,58.30
2018-02-23T04:28:25.937Z,58.00
2018-02-23T04:30:54.267Z,58.00
2018-02-23T04:33:21.821Z,58.00
2018-02-23T04:35:49.375Z,57.50
2018-02-23T04:38:16.975Z,57.60
2018-02-23T04:40:44.586Z,57.70
2018-02-23T04:43:12.882Z,57.90
2018-02-23T04:45:40.451Z,57.80
2018-02-23T04:48:08.014Z,57.90
2018-02-23T04:50:35.563Z,57.80
2018-02-23T04:53:03.524Z,58.20
2018-02-23T04:55:31.118Z,57.70
2018-02-23T04:57:58.723Z,57.50
2018-02-23T05:00:27.938Z,57.50
2018-02-23T05:02:55.642Z,57.50
2018-02-23T05:05:23.185Z,58.10
2018-02-23T05:07:51.568Z,57.80
2018-02-23T05:10:19.180Z,58.10
2018-02-23T05:12:47.506Z,57.90
2018-02-23T05:15:15.039Z,57.90
2018-02-23T05:17:42.607Z,57.70
2018-02-23T05:20:10.135Z,57.30
2018-02-23T05:22:37.696Z,57.40
2018-02-23T05:25:07.307Z,57.40
2018-02-23T05:27:34.909Z,57.40
2018-02-23T05:30:02.450Z,57.00
2018-02-23T05:32:30.024Z,56.90
2018-02-23T05:34:57.694Z,56.60
2018-02-23T05:37:26.104Z,56.90
2018-02-23T05:39:53.686Z,57.10
2018-02-23T05:42:22.023Z,57.40
2018-02-23T05:44:49.600Z,57.40
2018-02-23T05:47:17.150Z,57.70
2018-02-23T05:49:45.350Z,57.60
2018-02-23T05:52:12.889Z,57.40
2018-02-23T05:54:40.447Z,57.00
2018-02-23T05:57:08.044Z,57.50
2018-02-23T05:59:35.560Z,57.80
2018-02-23T06:02:03.422Z,58.40
2018-02-23T06:04:31.072Z,58.10
2018-02-23T06:06:58.641Z,57.60
2018-02-23T06:09:26.172Z,57.90
2018-02-23T06:11:53.765Z,57.90
2018-02-23T06:14:21.310Z,57.80
2018-02-23T06:16:48.839Z,57.50
2018-02-23T06:19:23.557Z,57.40
2018-02-23T06:21:51.908Z,57.30
2018-02-23T06:24:19.456Z,57.30
2018-02-23T06:26:47.101Z,57.00
2018-02-23T06:29:14.637Z,56.80
2018-02-23T06:31:42.221Z,56.90
2018-02-23T06:34:09.796Z,56.80
2018-02-23T06:36:37.382Z,56.60
2018-02-23T06:39:05.678Z,57.10
2018-02-23T06:41:35.897Z,56.80
2018-02-23T06:44:04.215Z,56.80
2018-02-23T06:46:32.991Z,56.80
2018-02-23T06:49:00.603Z,56.50
2018-02-23T06:51:28.171Z,56.80
2018-02-23T06:53:55.769Z,56.60
2018-02-23T06:56:23.332Z,56.80
2018-02-23T06:58:51.419Z,56.90
2018-02-23T07:01:18.989Z,56.70
2018-02-23T07:03:46.569Z,56.50
2018-02-23T07:06:14.995Z,56.40
2018-02-23T07:08:42.547Z,55.90
2018-02-23T07:11:11.864Z,56.60
2018-02-23T07:13:39.401Z,56.50
2018-02-23T07:16:06.975Z,56.90
2018-02-23T07:18:34.548Z,57.20
2018-02-23T07:21:03.017Z,57.10
2018-02-23T07:23:30.601Z,56.20
2018-02-23T07:25:58.258Z,56.50
2018-02-23T07:28:26.087Z,56.50
2018-02-23T07:30:53.675Z,56.80
2018-02-23T07:33:21.250Z,57.10
2018-02-23T07:35:48.823Z,57.20
2018-02-23T07:38:16.384Z,57.10
2018-02-23T07:40:44.782Z,57.20
2018-02-23T07:43:12.794Z,57.70
2018-02-23T07:45:40.344Z,57.20
2018-02-23T07:48:08.644Z,57.10
2018-02-23T07:50:36.544Z,56.90
2018-02-23T07:53:04.345Z,57.40
2018-02-23T07:55:32.466Z,57.30
2018-02-23T07:58:00.015Z,57.30
2018-02-23T08:00:27.612Z,57.20
2018-02-23T08:02:55.199Z,57.80
2018-02-23T08:05:23.530Z,57.70
2018-02-23T08:07:51.189Z,57.70
2018-02-23T08:10:18.733Z,57.90
2018-02-23T08:12:46.337Z,58.00
2018-02-23T08:15:14.787Z,58.10
2018-02-23T08:17:42.361Z,58.00
2018-02-23T08:20:09.921Z,58.60
2018-02-23T08:22:38.049Z,58.50
2018-02-23T08:25:07.667Z,57.80
2018-02-23T08:27:35.212Z,57.80
2018-02-23T08:30:08.065Z,58.10
2018-02-23T08:32:37.114Z,58.10
2018-02-23T08:35:08.187Z,58.10
2018-02-23T08:50:31.418Z,57.20
2018-02-23T08:52:59.829Z,58.90
2018-02-23T08:55:28.872Z,58.90
2018-02-23T08:57:57.284Z,59.00
2018-02-23T09:00:27.126Z,58.90
2018-02-23T09:02:55.499Z,58.60
2018-02-23T09:05:23.084Z,58.60
2018-02-23T09:07:51.839Z,58.70
2018-02-23T09:10:19.484Z,58.70
2018-02-23T09:12:49.258Z,58.70
2018-02-23T09:15:18.132Z,57.70
2018-02-23T09:17:47.133Z,57.90
2018-02-23T09:20:15.076Z,57.80
2018-02-23T09:22:43.542Z,57.70
2018-02-23T09:25:11.983Z,58.70
2018-02-23T09:27:40.094Z,58.00
2018-02-23T09:30:08.744Z,57.90
2018-02-23T09:32:38.161Z,58.10
2018-02-23T09:35:07.674Z,57.90
2018-02-23T09:37:36.018Z,57.70
2018-02-23T09:40:05.423Z,57.80
2018-02-23T09:55:28.511Z,58.10
2018-02-23T09:57:56.077Z,58.20
2018-02-23T10:00:23.593Z,58.10
2018-02-23T10:02:51.147Z,58.30
2018-02-23T10:05:18.704Z,57.80
2018-02-23T10:10:51.973Z,58.10
2018-02-23T10:13:19.560Z,58.00
2018-02-23T10:15:48.152Z,57.70
2018-02-23T10:18:15.770Z,57.80
2018-02-23T10:20:45.255Z,58.20
2018-02-23T10:23:13.557Z,58.50
2018-02-23T10:25:41.135Z,58.40
2018-02-23T10:28:08.722Z,58.60
2018-02-23T10:30:36.269Z,58.70
2018-02-23T10:33:04.505Z,59.10
2018-02-23T10:35:34.771Z,58.70
2018-02-23T10:38:02.618Z,59.60
2018-02-23T10:40:30.178Z,59.70
2018-02-23T10:42:58.505Z,59.40
2018-02-23T10:45:27.288Z,59.80
2018-02-23T10:47:54.839Z,59.30
2018-02-23T10:50:23.211Z,60.20
2018-02-23T10:52:50.815Z,60.30
2018-02-23T10:55:18.406Z,59.50
2018-02-23T10:57:46.647Z,59.40
2018-02-23T11:00:14.325Z,59.60
2018-02-23T11:02:41.979Z,59.90
2018-02-23T11:05:10.520Z,59.50
2018-02-23T11:07:38.252Z,59.30
2018-02-23T11:10:08.012Z,59.10
2018-02-23T11:12:37.094Z,58.90
2018-02-23T11:15:06.312Z,58.80
2018-02-23T11:17:33.882Z,58.40
2018-02-23T11:20:02.228Z,58.10
2018-02-23T11:22:29.779Z,58.00
2018-02-23T11:24:57.392Z,57.90
2018-02-23T11:27:26.432Z,58.70
2018-02-23T11:29:54.255Z,58.40
2018-02-23T11:32:21.854Z,58.90
2018-02-23T11:34:50.173Z,59.40
2018-02-23T11:37:17.801Z,59.40
2018-02-23T11:39:46.121Z,58.90
2018-02-23T11:42:14.320Z,58.10
2018-02-23T11:44:41.992Z,57.70
2018-02-23T11:47:10.163Z,57.70
2018-02-23T11:49:37.776Z,57.20
2018-02-23T11:52:05.397Z,57.00
2018-02-23T11:54:32.972Z,57.10
2018-02-23T11:57:01.202Z,57.40
2018-02-23T11:59:28.792Z,56.50
2018-02-23T12:01:56.619Z,56.30
2018-02-23T12:04:25.780Z,56.00
2018-02-23T12:06:53.463Z,56.00
2018-02-23T12:09:21.793Z,56.30
2018-02-23T12:11:49.348Z,56.30
2018-02-23T12:14:17.130Z,55.80
2018-02-23T12:16:46.185Z,55.00
2018-02-23T12:19:13.822Z,54.80
2018-02-23T12:21:41.411Z,54.00
2018-02-23T12:24:09.723Z,54.00
2018-02-23T12:26:37.674Z,54.40
2018-02-23T12:29:05.250Z,55.10
2018-02-23T12:31:32.807Z,55.30
2018-02-23T12:34:00.685Z,55.10
2018-02-23T12:36:31.315Z,55.40
2018-02-23T12:39:01.092Z,54.40
2018-02-23T12:41:28.870Z,54.40
2018-02-23T12:43:56.480Z,54.40
2018-02-23T12:46:25.135Z,53.90
2018-02-23T12:48:52.812Z,53.30
2018-02-23T12:51:20.410Z,53.90
2018-02-23T12:53:49.564Z,54.40
2018-02-23T12:56:17.665Z,54.30
2018-02-23T12:58:45.987Z,54.30
2018-02-23T13:01:14.832Z,54.30
2018-02-23T13:03:42.414Z,54.00
2018-02-23T13:06:10.452Z,53.90
2018-02-23T13:08:38.926Z,53.60
2018-02-23T13:11:07.300Z,53.70
2018-02-23T13:13:35.723Z,53.60
2018-02-23T13:16:04.000Z,54.20
2018-02-23T13:18:31.568Z,54.00
2018-02-23T13:20:59.160Z,54.20
2018-02-23T13:23:26.965Z,54.10
2018-02-23T13:25:55.528Z,54.20
2018-02-23T13:28:28.674Z,54.20
2018-02-23T13:30:57.011Z,53.90
2018-02-23T13:33:26.160Z,54.10
2018-02-23T13:35:53.806Z,53.70
2018-02-23T13:38:21.504Z,54.40
2018-02-23T13:40:55.072Z,54.10
2018-02-23T13:43:23.481Z,54.10
2018-02-23T13:45:51.485Z,54.00
2018-02-23T13:48:20.923Z,54.50
2018-02-23T13:50:49.425Z,54.50
2018-02-23T13:53:17.961Z,54.70
2018-02-23T13:55:46.433Z,54.70
2018-02-23T13:58:14.161Z,54.70
2018-02-23T14:00:43.764Z,54.70
2018-02-23T14:03:11.554Z,54.40
2018-02-23T14:05:40.607Z,54.20
2018-02-23T14:08:08.660Z,54.20
2018-02-23T14:10:36.278Z,54.20
2018-02-23T14:13:03.905Z,54.20
2018-02-23T14:15:31.768Z,55.00
2018-02-23T14:17:59.901Z,54.30
2018-02-23T14:20:28.103Z,54.20
2018-02-23T14:22:55.675Z,53.90
2018-02-23T14:25:23.240Z,54.00
2018-02-23T14:27:50.917Z,53.90
2018-02-23T14:30:18.543Z,53.90
2018-02-23T14:32:47.189Z,54.00
2018-02-23T14:35:14.753Z,54.00
2018-02-23T14:37:42.821Z,54.20
2018-02-23T14:40:11.884Z,54.70
2018-02-23T14:42:39.471Z,54.70
2018-02-23T14:45:07.122Z,54.40
2018-02-23T14:47:34.831Z,54.50
2018-02-23T14:50:14.084Z,54.30
2018-02-23T14:52:42.600Z,54.80
2018-02-23T14:55:10.134Z,54.70
2018-02-23T14:57:37.715Z,54.30
2018-02-23T15:00:06.525Z,54.30
2018-02-23T15:02:34.060Z,54.20
2018-02-23T15:05:01.672Z,54.30
2018-02-23T15:07:30.731Z,54.20
2018-02-23T15:09:58.287Z,54.10
2018-02-23T15:12:25.847Z,53.60
2018-02-23T15:14:54.313Z,54.10
2018-02-23T15:17:22.074Z,54.20
2018-02-23T15:19:50.307Z,54.10
2018-02-23T15:22:18.637Z,54.20
2018-02-23T15:24:47.234Z,54.60
2018-02-23T15:27:14.842Z,54.50
2018-02-23T15:29:43.227Z,54.30
2018-02-23T15:32:30.645Z,54.30
2018-02-23T15:34:58.999Z,54.30
2018-02-23T15:37:27.491Z,54.20
2018-02-23T15:39:55.160Z,54.90
2018-02-23T15:42:24.151Z,55.00
2018-02-23T15:44:52.483Z,54.90
2018-02-23T15:47:23.014Z,54.90
2018-02-23T15:50:07.618Z,55.80
2018-02-23T15:52:35.288Z,56.10
2018-02-23T15:55:04.244Z,56.70
2018-02-23T15:57:33.500Z,56.70
2018-02-23T16:00:01.108Z,56.50
2018-02-23T16:02:28.700Z,56.50
2018-02-23T16:04:56.489Z,56.90
2018-02-23T16:07:24.977Z,57.00
2018-02-23T16:09:52.537Z,57.50
2018-02-23T16:12:21.158Z,57.40
2018-02-23T16:14:48.724Z,57.50
2018-02-23T16:17:16.333Z,57.70
2018-02-23T16:19:43.988Z,58.30
2018-02-23T16:22:12.215Z,57.90
2018-02-23T16:24:39.844Z,58.10
2018-02-23T16:27:07.924Z,58.00
2018-02-23T16:29:35.525Z,58.30
2018-02-23T16:32:03.691Z,58.40
2018-02-23T16:34:31.291Z,58.10
2018-02-23T16:36:59.243Z,58.20
2018-02-23T16:39:26.811Z,58.40
2018-02-23T16:41:55.174Z,57.30
2018-02-23T16:44:22.751Z,57.20
2018-02-23T16:46:51.092Z,57.50
2018-02-23T16:49:18.904Z,57.50
2018-02-23T16:51:47.259Z,57.10
2018-02-23T16:54:15.561Z,57.00
2018-02-23T16:56:43.730Z,56.90
2018-02-23T16:59:11.319Z,56.80
2018-02-23T17:01:38.990Z,56.40
2018-02-23T17:04:06.768Z,56.90
2018-02-23T17:06:34.807Z,56.40
2018-02-23T17:09:02.392Z,56.50
2018-02-23T17:11:30.856Z,56.40
2018-02-23T17:13:59.037Z,56.80
2018-02-23T17:16:26.626Z,56.60
2018-02-23T17:18:55.322Z,56.90
2018-02-23T17:21:25.067Z,56.70
2018-02-23T17:23:52.686Z,56.70
2018-02-23T17:26:20.274Z,57.00
2018-02-23T17:28:49.281Z,56.70
2018-02-23T17:31:18.167Z,57.00
2018-02-23T17:33:45.740Z,57.00
2018-02-23T17:36:14.712Z,57.10
2018-02-23T17:38:42.357Z,56.70
2018-02-23T17:41:10.002Z,56.60
2018-02-23T17:43:38.027Z,56.40
2018-02-23T17:46:05.658Z,56.80
2018-02-23T17:48:34.978Z,56.20
2018-02-23T17:51:04.185Z,56.20
2018-02-23T17:53:32.048Z,56.20
2018-02-23T17:55:59.848Z,55.90
2018-02-23T17:58:28.090Z,56.00
2018-02-23T18:00:56.911Z,55.90
2018-02-23T18:03:26.308Z,56.40
2018-02-23T18:05:55.332Z,56.50
2018-02-23T18:08:23.172Z,56.10
2018-02-23T18:10:50.963Z,56.00
2018-02-23T18:13:18.735Z,56.00
2018-02-23T18:15:46.987Z,55.90
2018-02-23T18:18:14.757Z,55.80
2018-02-23T18:20:43.457Z,55.20
2018-02-23T18:23:11.394Z,54.80
2018-02-23T18:25:39.706Z,54.70
2018-02-23T18:28:07.401Z,54.80
2018-02-23T18:30:35.430Z,54.80
2018-02-23T18:33:03.290Z,54.80
2018-02-23T18:35:31.687Z,55.30
2018-02-23T18:38:01.116Z,55.20
2018-02-23T18:40:29.810Z,54.50
2018-02-23T18:42:57.422Z,54.50
2018-02-23T18:45:26.148Z,54.70
2018-02-23T18:47:55.205Z,54.80
2018-02-23T18:50:22.735Z,54.80
2018-02-23T18:52:50.297Z,55.30
2018-02-23T18:55:17.893Z,55.00
2018-02-23T18:57:46.521Z,55.00
2018-02-23T19:00:14.650Z,55.20
2018-02-23T19:02:42.693Z,55.20
2018-02-23T19:05:11.495Z,55.20
2018-02-23T19:07:40.378Z,55.20
2018-02-23T19:10:09.414Z,55.00
2018-02-23T19:12:37.543Z,54.70
2018-02-23T19:15:07.409Z,55.50
2018-02-23T19:17:35.748Z,55.80
2018-02-23T19:20:05.097Z,55.80
2018-02-23T19:32:13.486Z,55.40
2018-02-23T19:34:41.123Z,56.10
2018-02-23T19:37:08.860Z,56.00
2018-02-23T19:39:36.400Z,56.10
2018-02-23T19:42:03.975Z,56.00
2018-02-23T19:44:31.908Z,56.10
2018-02-23T19:46:59.473Z,56.40
2018-02-23T19:49:27.108Z,56.10
2018-02-23T19:51:55.118Z,56.30
2018-02-23T19:54:23.108Z,56.10
2018-02-23T19:56:51.159Z,55.80
2018-02-23T19:59:19.148Z,55.90
2018-02-23T20:01:47.584Z,56.10
2018-02-23T20:04:16.399Z,55.40
2018-02-23T20:06:44.167Z,55.40
2018-02-23T20:09:12.753Z,55.10
2018-02-23T20:11:40.406Z,55.10
2018-02-23T20:14:07.997Z,55.00
2018-02-23T20:16:35.737Z,55.10
2018-02-23T20:19:03.332Z,54.90
2018-02-23T20:21:31.263Z,54.90
2018-02-23T20:23:58.940Z,54.50
2018-02-23T20:26:27.273Z,54.50
2018-02-23T20:28:55.546Z,54.80
2018-02-23T20:31:25.710Z,54.90
2018-02-23T20:33:53.697Z,55.10
2018-02-23T20:36:21.306Z,55.50
2018-02-23T20:38:50.395Z,55.10
2018-02-23T20:41:18.203Z,55.10
2018-02-23T20:43:46.416Z,55.60
2018-02-23T20:46:14.923Z,55.40
2018-02-23T20:48:43.932Z,55.10
2018-02-23T20:51:11.891Z,55.10
2018-02-23T20:53:40.071Z,55.20
2018-02-23T20:56:07.887Z,55.00
2018-02-23T20:58:35.600Z,54.70
2018-02-23T21:01:03.276Z,54.70
2018-02-23T21:03:32.074Z,54.90
2018-02-23T21:06:00.412Z,54.70
2018-02-23T21:08:28.936Z,54.10
2018-02-23T21:10:57.090Z,54.10
2018-02-23T21:13:26.457Z,54.60
2018-02-23T21:15:54.043Z,54.10
2018-02-23T21:18:22.607Z,54.20
2018-02-23T21:20:51.059Z,54.60
2018-02-23T21:23:19.996Z,54.50
2018-02-23T21:25:48.525Z,54.30
2018-02-23T21:28:16.168Z,54.10
2018-02-23T21:30:43.863Z,54.10
2018-02-23T21:33:11.601Z,54.30
2018-02-23T21:35:39.900Z,54.50
2018-02-23T21:38:07.813Z,54.30
2018-02-23T21:40:35.407Z,53.90
2018-02-23T21:43:03.197Z,54.50
2018-02-23T21:45:31.806Z,54.60
2018-02-23T21:48:00.367Z,54.80
2018-02-23T21:50:27.901Z,54.80
2018-02-23T21:52:55.447Z,54.90
2018-02-23T21:55:24.453Z,54.40
2018-02-23T21:57:52.411Z,54.50
2018-02-23T22:00:21.067Z,54.30
2018-02-23T22:02:48.647Z,53.80
2018-02-23T22:05:16.340Z,54.20
2018-02-23T22:07:44.293Z,54.20
2018-02-23T22:10:13.595Z,53.70
2018-02-23T22:12:41.164Z,53.90
2018-02-23T22:15:08.780Z,54.10
2018-02-23T22:17:36.500Z,54.10
2018-02-23T22:20:06.061Z,53.70
2018-02-23T22:22:34.402Z,53.40
2018-02-23T22:25:01.976Z,53.40
2018-02-23T22:27:30.111Z,53.60
2018-02-23T22:29:58.231Z,53.50
2018-02-23T22:32:27.443Z,53.30
2018-02-23T22:34:55.788Z,53.30
2018-02-23T22:37:25.276Z,53.30
2018-02-23T22:39:54.460Z,53.80
2018-02-23T22:42:22.010Z,53.00
2018-02-23T22:44:50.330Z,53.10
2018-02-23T22:47:19.315Z,53.60
2018-02-23T22:49:47.911Z,53.40
2018-02-23T22:52:15.564Z,53.40
2018-02-23T22:54:44.639Z,52.40
2018-02-23T22:57:12.289Z,52.50
2018-02-23T22:59:40.462Z,52.80
2018-02-23T23:02:08.120Z,52.50
2018-02-23T23:04:36.488Z,52.60
2018-02-23T23:07:06.093Z,53.20
2018-02-23T23:09:34.252Z,52.90
2018-02-23T23:12:01.806Z,52.40
2018-02-23T23:14:30.261Z,52.30
2018-02-23T23:16:59.338Z,52.40
2018-02-23T23:19:28.260Z,52.60
2018-02-23T23:21:57.224Z,51.30
2018-02-23T23:24:24.783Z,51.20
2018-02-23T23:26:52.701Z,50.90
2018-02-23T23:29:21.151Z,52.00
2018-02-23T23:31:48.909Z,52.30
2018-02-23T23:34:16.446Z,52.40
2018-02-23T23:36:44.694Z,52.10
2018-02-23T23:39:12.288Z,51.90
2018-02-23T23:41:40.537Z,52.20
2018-02-23T23:44:08.958Z,51.60
2018-02-23T23:46:36.596Z,51.70
2018-02-23T23:49:04.176Z,51.30
2018-02-23T23:51:31.718Z,51.70
2018-02-23T23:53:59.775Z,51.20
2018-02-23T23:56:27.378Z,51.50
2018-02-23T23:58:54.934Z,51.30
